Aviation Digital Data Service (ADDS)

Output produced by METARs form (0124 UTC 23 July 2017)
found at http://www.aviationweather.gov/adds/metars/
 
TAF TQPF 222300Z 2300/2324 10013KT 9999 SCT020 
     PROB40 
     TEMPO 2300/2312 SHRA BKN014